aviador You're here:

PAIK Decoded Metar

in _UNIDENTIFIED
Report Time2017-06-25 13:01:00
UTC Time2017-06-25 13:43:59
Flight Rules vfr VFR
WindCalm
Visibility9999 m
Phenomena:N/A
Clouds:Broken 041 Hf
Overcast 050 Hf
Expected CloudBase > 2,000 ft AGL from Temp-Dew spread
Ceiling4,100 ft
Temp09°C (ISA -6)
Dew Point04°C (71% RH)
AAT7.7°C
QNH1018 hPa
Density Alt-571 ft
Elevation167 ft
Report Wrong Elevation
Raw Report
PAIK 251301Z AUTO 00000KT 10SM BKN041 OVC050 09/04 A3007 RMK AO2
SLP225 T00940044=

Extra information for PAIK:More info

Metar Taf Metar & Taf Last 4 Metars F.Rules Stats Wind Profile Meteogram Temp Stats Metar ALERT Operation Metar Decoded Social comments